sensor_id;sensor_type;location;lat;lon;timestamp;pressure;altitude;pressure_sealevel;temperature;humidity
59787;BME280;45672;51.612;5.536;2023-04-10T00:00:46;101939.50;;;9.27;75.38
59787;BME280;45672;51.612;5.536;2023-04-10T00:03:13;101936.84;;;9.27;74.90
59787;BME280;45672;51.612;5.536;2023-04-10T00:05:41;101934.06;;;9.29;77.61
59787;BME280;45672;51.612;5.536;2023-04-10T00:08:07;101925.41;;;9.27;76.15
59787;BME280;45672;51.612;5.536;2023-04-10T00:10:32;101913.06;;;9.26;75.52
59787;BME280;45672;51.612;5.536;2023-04-10T00:12:57;101907.03;;;9.24;75.79
59787;BME280;45672;51.612;5.536;2023-04-10T00:15:25;101908.97;;;9.22;74.98
59787;BME280;45672;51.612;5.536;2023-04-10T00:17:50;101903.78;;;9.20;75.60
59787;BME280;45672;51.612;5.536;2023-04-10T00:20:20;101902.94;;;9.20;74.95
59787;BME280;45672;51.612;5.536;2023-04-10T00:22:46;101895.69;;;9.22;74.73
59787;BME280;45672;51.612;5.536;2023-04-10T00:25:12;101898.34;;;9.22;75.26
59787;BME280;45672;51.612;5.536;2023-04-10T00:27:37;101892.06;;;9.23;74.61
59787;BME280;45672;51.612;5.536;2023-04-10T00:30:02;101884.81;;;9.25;75.75
59787;BME280;45672;51.612;5.536;2023-04-10T00:32:28;101875.28;;;9.22;75.81
59787;BME280;45672;51.612;5.536;2023-04-10T00:34:53;101871.09;;;9.20;75.36
59787;BME280;45672;51.612;5.536;2023-04-10T00:37:19;101878.91;;;9.21;74.88
59787;BME280;45672;51.612;5.536;2023-04-10T00:39:44;101872.50;;;9.24;75.98
59787;BME280;45672;51.612;5.536;2023-04-10T00:42:09;101863.94;;;9.20;76.66
59787;BME280;45672;51.612;5.536;2023-04-10T00:44:35;101871.78;;;9.22;74.70
59787;BME280;45672;51.612;5.536;2023-04-10T00:47:03;101870.09;;;9.21;75.02
59787;BME280;45672;51.612;5.536;2023-04-10T00:49:29;101876.47;;;9.18;74.18
59787;BME280;45672;51.612;5.536;2023-04-10T00:51:55;101854.66;;;9.14;75.14
59787;BME280;45672;51.612;5.536;2023-04-10T00:54:21;101863.56;;;9.13;74.99
59787;BME280;45672;51.612;5.536;2023-04-10T00:56:48;101861.91;;;9.12;74.53
59787;BME280;45672;51.612;5.536;2023-04-10T00:59:14;101863.00;;;9.10;75.16
59787;BME280;45672;51.612;5.536;2023-04-10T01:01:40;101854.66;;;9.03;75.39
59787;BME280;45672;51.612;5.536;2023-04-10T01:04:06;101859.25;;;9.01;75.53
59787;BME280;45672;51.612;5.536;2023-04-10T01:09:49;101857.66;;;8.99;76.20
59787;BME280;45672;51.612;5.536;2023-04-10T01:15:10;101858.25;;;8.91;76.22
59787;BME280;45672;51.612;5.536;2023-04-10T01:20:23;101857.66;;;8.87;76.92
59787;BME280;45672;51.612;5.536;2023-04-10T01:30:56;101839.66;;;8.79;77.54
59787;BME280;45672;51.612;5.536;2023-04-10T01:33:27;101845.94;;;8.78;77.51
59787;BME280;45672;51.612;5.536;2023-04-10T01:35:57;101839.91;;;8.76;77.96
59787;BME280;45672;51.612;5.536;2023-04-10T01:38:25;101840.78;;;8.77;79.87
59787;BME280;45672;51.612;5.536;2023-04-10T01:40:53;101838.19;;;8.75;77.63
59787;BME280;45672;51.612;5.536;2023-04-10T01:43:20;101838.31;;;8.74;78.62
59787;BME280;45672;51.612;5.536;2023-04-10T01:45:48;101836.03;;;8.69;77.75
59787;BME280;45672;51.612;5.536;2023-04-10T01:48:15;101837.63;;;8.72;78.83
59787;BME280;45672;51.612;5.536;2023-04-10T01:50:44;101826.16;;;8.71;78.76
59787;BME280;45672;51.612;5.536;2023-04-10T01:53:09;101823.59;;;8.70;76.89
59787;BME280;45672;51.612;5.536;2023-04-10T01:55:35;101826.63;;;8.65;78.80
59787;BME280;45672;51.612;5.536;2023-04-10T01:58:01;101813.97;;;8.69;78.18
59787;BME280;45672;51.612;5.536;2023-04-10T02:00:27;101815.88;;;8.67;79.90
59787;BME280;45672;51.612;5.536;2023-04-10T02:02:52;101806.34;;;8.64;77.94
59787;BME280;45672;51.612;5.536;2023-04-10T02:05:18;101805.75;;;8.60;79.38
59787;BME280;45672;51.612;5.536;2023-04-10T02:08:14;101807.34;;;8.63;77.85
59787;BME280;45672;51.612;5.536;2023-04-10T02:10:55;101800.44;;;8.60;78.23
59787;BME280;45672;51.612;5.536;2023-04-10T02:13:24;101793.44;;;8.59;78.81
59787;BME280;45672;51.612;5.536;2023-04-10T02:15:54;101787.56;;;8.56;78.82
59787;BME280;45672;51.612;5.536;2023-04-10T02:18:21;101792.00;;;8.55;78.31
59787;BME280;45672;51.612;5.536;2023-04-10T02:20:48;101786.81;;;8.54;78.57
59787;BME280;45672;51.612;5.536;2023-04-10T02:23:16;101782.56;;;8.51;80.96
59787;BME280;45672;51.612;5.536;2023-04-10T02:25:43;101787.88;;;8.51;79.65
59787;BME280;45672;51.612;5.536;2023-04-10T02:28:09;101780.16;;;8.48;80.08
59787;BME280;45672;51.612;5.536;2023-04-10T02:30:34;101775.81;;;8.47;78.73
59787;BME280;45672;51.612;5.536;2023-04-10T02:33:00;101783.91;;;8.45;79.11
59787;BME280;45672;51.612;5.536;2023-04-10T02:35:25;101779.56;;;8.44;78.80
59787;BME280;45672;51.612;5.536;2023-04-10T02:37:51;101779.03;;;8.39;78.76
59787;BME280;45672;51.612;5.536;2023-04-10T02:40:16;101776.63;;;8.36;78.01
59787;BME280;45672;51.612;5.536;2023-04-10T02:42:42;101775.06;;;8.34;78.76
59787;BME280;45672;51.612;5.536;2023-04-10T02:45:08;101779.53;;;8.33;79.21
59787;BME280;45672;51.612;5.536;2023-04-10T02:47:33;101777.81;;;8.32;80.42
59787;BME280;45672;51.612;5.536;2023-04-10T02:49:59;101772.53;;;8.32;79.03
59787;BME280;45672;51.612;5.536;2023-04-10T02:52:24;101777.94;;;8.31;78.54
59787;BME280;45672;51.612;5.536;2023-04-10T02:54:50;101776.25;;;8.29;78.92
59787;BME280;45672;51.612;5.536;2023-04-10T02:57:16;101763.94;;;8.28;79.15
59787;BME280;45672;51.612;5.536;2023-04-10T02:59:41;101770.81;;;8.31;78.91
59787;BME280;45672;51.612;5.536;2023-04-10T03:02:06;101767.47;;;8.29;78.56
59787;BME280;45672;51.612;5.536;2023-04-10T03:04:32;101766.84;;;8.25;78.26
59787;BME280;45672;51.612;5.536;2023-04-10T03:06:57;101774.06;;;8.23;79.61
59787;BME280;45672;51.612;5.536;2023-04-10T03:09:23;101774.06;;;8.23;79.27
59787;BME280;45672;51.612;5.536;2023-04-10T03:11:48;101775.84;;;8.23;80.16
59787;BME280;45672;51.612;5.536;2023-04-10T03:14:14;101775.03;;;8.22;79.63
59787;BME280;45672;51.612;5.536;2023-04-10T03:16:39;101782.03;;;8.23;80.43
59787;BME280;45672;51.612;5.536;2023-04-10T03:19:05;101788.63;;;8.18;81.46
59787;BME280;45672;51.612;5.536;2023-04-10T03:21:30;101786.22;;;8.15;81.75
59787;BME280;45672;51.612;5.536;2023-04-10T03:23:56;101789.19;;;8.10;81.53
59787;BME280;45672;51.612;5.536;2023-04-10T03:26:21;101781.47;;;8.07;82.10
59787;BME280;45672;51.612;5.536;2023-04-10T03:28:48;101779.06;;;8.04;81.18
59787;BME280;45672;51.612;5.536;2023-04-10T03:31:13;101781.13;;;8.00;81.79
59787;BME280;45672;51.612;5.536;2023-04-10T03:33:38;101778.47;;;8.00;82.29
59787;BME280;45672;51.612;5.536;2023-04-10T03:36:04;101774.13;;;7.99;82.23
59787;BME280;45672;51.612;5.536;2023-04-10T03:38:30;101773.38;;;7.97;82.25
59787;BME280;45672;51.612;5.536;2023-04-10T03:40:55;101771.91;;;7.93;82.31
59787;BME280;45672;51.612;5.536;2023-04-10T03:43:20;101751.31;;;7.85;81.95
59787;BME280;45672;51.612;5.536;2023-04-10T03:45:45;101757.31;;;7.87;82.61
59787;BME280;45672;51.612;5.536;2023-04-10T03:48:11;101756.72;;;7.84;82.20
59787;BME280;45672;51.612;5.536;2023-04-10T03:50:37;101762.25;;;7.81;81.87
59787;BME280;45672;51.612;5.536;2023-04-10T03:53:02;101756.44;;;7.75;82.63
59787;BME280;45672;51.612;5.536;2023-04-10T03:55:27;101751.25;;;7.74;83.11
59787;BME280;45672;51.612;5.536;2023-04-10T03:57:52;101752.56;;;7.68;82.15
59787;BME280;45672;51.612;5.536;2023-04-10T04:00:18;101749.19;;;7.66;82.71
59787;BME280;45672;51.612;5.536;2023-04-10T04:02:44;101747.72;;;7.62;83.07
59787;BME280;45672;51.612;5.536;2023-04-10T04:05:10;101747.84;;;7.61;83.48
59787;BME280;45672;51.612;5.536;2023-04-10T04:07:35;101742.03;;;7.55;84.00
59787;BME280;45672;51.612;5.536;2023-04-10T04:10:00;101740.44;;;7.53;85.67
59787;BME280;45672;51.612;5.536;2023-04-10T04:12:26;101732.72;;;7.50;85.68
59787;BME280;45672;51.612;5.536;2023-04-10T04:14:51;101730.44;;;7.45;84.17
59787;BME280;45672;51.612;5.536;2023-04-10T04:17:17;101731.25;;;7.46;84.49
59787;BME280;45672;51.612;5.536;2023-04-10T04:19:42;101738.25;;;7.47;84.61
59787;BME280;45672;51.612;5.536;2023-04-10T04:22:08;101732.22;;;7.45;84.64
59787;BME280;45672;51.612;5.536;2023-04-10T04:24:33;101723.56;;;7.42;83.72
59787;BME280;45672;51.612;5.536;2023-04-10T04:26:59;101734.84;;;7.45;83.34
59787;BME280;45672;51.612;5.536;2023-04-10T04:29:25;101733.19;;;7.44;82.29
59787;BME280;45672;51.612;5.536;2023-04-10T04:31:50;101713.91;;;7.41;82.51
59787;BME280;45672;51.612;5.536;2023-04-10T04:34:15;101712.84;;;7.44;83.69
59787;BME280;45672;51.612;5.536;2023-04-10T04:36:41;101713.69;;;7.45;82.60
59787;BME280;45672;51.612;5.536;2023-04-10T04:39:07;101723.31;;;7.46;82.40
59787;BME280;45672;51.612;5.536;2023-04-10T04:41:32;101718.97;;;7.45;82.23
59787;BME280;45672;51.612;5.536;2023-04-10T04:43:59;101723.19;;;7.47;82.56
59787;BME280;45672;51.612;5.536;2023-04-10T04:46:25;101727.66;;;7.47;81.53
59787;BME280;45672;51.612;5.536;2023-04-10T04:48:50;101715.38;;;7.46;81.29
59787;BME280;45672;51.612;5.536;2023-04-10T04:51:15;101712.72;;;7.46;81.46
59787;BME280;45672;51.612;5.536;2023-04-10T04:53:41;101709.13;;;7.47;81.44
59787;BME280;45672;51.612;5.536;2023-04-10T04:56:06;101709.00;;;7.48;81.00
59787;BME280;45672;51.612;5.536;2023-04-10T04:58:32;101706.00;;;7.53;82.40
59787;BME280;45672;51.612;5.536;2023-04-10T05:00:58;101704.44;;;7.50;81.22
59787;BME280;45672;51.612;5.536;2023-04-10T05:03:23;101708.78;;;7.51;81.17
59787;BME280;45672;51.612;5.536;2023-04-10T05:05:48;101699.03;;;7.52;80.75
59787;BME280;45672;51.612;5.536;2023-04-10T05:08:14;101698.66;;;7.45;82.04
59787;BME280;45672;51.612;5.536;2023-04-10T05:10:40;101705.41;;;7.49;81.47
59787;BME280;45672;51.612;5.536;2023-04-10T05:13:05;101690.72;;;7.45;80.20
59787;BME280;45672;51.612;5.536;2023-04-10T05:15:30;101682.75;;;7.45;81.41
59787;BME280;45672;51.612;5.536;2023-04-10T05:17:55;101689.53;;;7.49;81.36
59787;BME280;45672;51.612;5.536;2023-04-10T05:20:21;101689.28;;;7.52;80.95
59787;BME280;45672;51.612;5.536;2023-04-10T05:22:47;101688.44;;;7.52;80.13
59787;BME280;45672;51.612;5.536;2023-04-10T05:25:12;101677.84;;;7.52;80.86
59787;BME280;45672;51.612;5.536;2023-04-10T05:27:38;101675.94;;;7.54;80.62
59787;BME280;45672;51.612;5.536;2023-04-10T05:30:03;101677.41;;;7.58;80.16
59787;BME280;45672;51.612;5.536;2023-04-10T05:32:28;101685.00;;;7.63;80.05
59787;BME280;45672;51.612;5.536;2023-04-10T05:34:54;101678.63;;;7.65;79.74
59787;BME280;45672;51.612;5.536;2023-04-10T05:37:19;101677.56;;;7.68;80.01
59787;BME280;45672;51.612;5.536;2023-04-10T05:39:45;101690.09;;;7.77;80.13
59787;BME280;45672;51.612;5.536;2023-04-10T05:42:10;101680.00;;;7.82;78.27
59787;BME280;45672;51.612;5.536;2023-04-10T05:44:35;101686.53;;;7.89;79.23
59787;BME280;45672;51.612;5.536;2023-04-10T05:47:01;101676.75;;;7.90;78.99
59787;BME280;45672;51.612;5.536;2023-04-10T05:49:26;101680.88;;;8.05;79.07
59787;BME280;45672;51.612;5.536;2023-04-10T05:51:51;101674.16;;;8.13;78.35
59787;BME280;45672;51.612;5.536;2023-04-10T05:54:17;101686.22;;;8.17;78.03
59787;BME280;45672;51.612;5.536;2023-04-10T05:56:43;101692.00;;;8.22;77.53
59787;BME280;45672;51.612;5.536;2023-04-10T05:59:08;101687.28;;;8.25;77.39
59787;BME280;45672;51.612;5.536;2023-04-10T06:01:33;101688.28;;;8.36;77.97
59787;BME280;45672;51.612;5.536;2023-04-10T06:03:59;101679.63;;;8.45;78.22
59787;BME280;45672;51.612;5.536;2023-04-10T06:06:25;101682.53;;;8.53;77.44
59787;BME280;45672;51.612;5.536;2023-04-10T06:08:51;101680.00;;;8.63;76.99
59787;BME280;45672;51.612;5.536;2023-04-10T06:11:16;101685.53;;;8.71;76.06
59787;BME280;45672;51.612;5.536;2023-04-10T06:13:41;101688.66;;;8.76;76.00
59787;BME280;45672;51.612;5.536;2023-04-10T06:16:07;101683.59;;;8.85;75.13
59787;BME280;45672;51.612;5.536;2023-04-10T06:18:33;101685.25;;;8.97;75.83
59787;BME280;45672;51.612;5.536;2023-04-10T06:20:58;101671.84;;;9.10;73.69
59787;BME280;45672;51.612;5.536;2023-04-10T06:23:26;101673.59;;;9.21;74.14
59787;BME280;45672;51.612;5.536;2023-04-10T06:25:53;101676.22;;;9.32;73.75
59787;BME280;45672;51.612;5.536;2023-04-10T06:28:18;101668.81;;;9.47;73.41
59787;BME280;45672;51.612;5.536;2023-04-10T06:30:43;101674.19;;;9.57;72.18
59787;BME280;45672;51.612;5.536;2023-04-10T06:33:09;101658.81;;;9.60;72.17
59787;BME280;45672;51.612;5.536;2023-04-10T06:35:35;101653.59;;;9.70;71.96
59787;BME280;45672;51.612;5.536;2023-04-10T06:38:00;101656.97;;;9.72;71.41
59787;BME280;45672;51.612;5.536;2023-04-10T06:40:26;101646.84;;;9.66;71.81
59787;BME280;45672;51.612;5.536;2023-04-10T06:42:53;101650.53;;;9.75;71.89
59787;BME280;45672;51.612;5.536;2023-04-10T06:45:19;101654.47;;;9.80;70.65
59787;BME280;45672;51.612;5.536;2023-04-10T06:47:45;101650.47;;;9.86;70.26
59787;BME280;45672;51.612;5.536;2023-04-10T06:50:10;101649.38;;;9.89;69.23
59787;BME280;45672;51.612;5.536;2023-04-10T06:52:36;101638.88;;;9.87;69.50
59787;BME280;45672;51.612;5.536;2023-04-10T06:55:01;101633.75;;;9.95;69.66
59787;BME280;45672;51.612;5.536;2023-04-10T06:57:26;101620.44;;;9.95;69.35
59787;BME280;45672;51.612;5.536;2023-04-10T06:59:53;101624.81;;;10.06;69.10
59787;BME280;45672;51.612;5.536;2023-04-10T07:02:18;101620.78;;;10.12;68.57
59787;BME280;45672;51.612;5.536;2023-04-10T07:04:43;101604.31;;;10.18;67.44
59787;BME280;45672;51.612;5.536;2023-04-10T07:07:09;101609.06;;;10.14;68.15
59787;BME280;45672;51.612;5.536;2023-04-10T07:09:38;101609.50;;;10.20;67.22
59787;BME280;45672;51.612;5.536;2023-04-10T07:12:03;101614.69;;;10.21;66.72
59787;BME280;45672;51.612;5.536;2023-04-10T07:14:28;101598.72;;;10.21;68.00
59787;BME280;45672;51.612;5.536;2023-04-10T07:16:53;101600.72;;;10.29;66.75
59787;BME280;45672;51.612;5.536;2023-04-10T07:19:19;101594.63;;;10.38;66.67
59787;BME280;45672;51.612;5.536;2023-04-10T07:21:45;101593.81;;;10.47;65.29
59787;BME280;45672;51.612;5.536;2023-04-10T07:24:17;101588.09;;;10.52;66.47
59787;BME280;45672;51.612;5.536;2023-04-10T07:26:43;101585.31;;;10.63;66.19
59787;BME280;45672;51.612;5.536;2023-04-10T07:29:09;101568.94;;;10.78;64.26
59787;BME280;45672;51.612;5.536;2023-04-10T07:31:34;101567.41;;;10.95;63.25
59787;BME280;45672;51.612;5.536;2023-04-10T07:34:01;101567.00;;;11.09;62.93
59787;BME280;45672;51.612;5.536;2023-04-10T07:36:26;101564.16;;;11.40;62.40
59787;BME280;45672;51.612;5.536;2023-04-10T07:38:51;101564.53;;;11.65;60.75
59787;BME280;45672;51.612;5.536;2023-04-10T07:41:17;101565.50;;;11.64;60.08
59787;BME280;45672;51.612;5.536;2023-04-10T07:43:43;101551.63;;;11.70;59.73
59787;BME280;45672;51.612;5.536;2023-04-10T07:46:08;101551.97;;;11.95;60.62
59787;BME280;45672;51.612;5.536;2023-04-10T07:48:34;101551.38;;;12.29;58.03
59787;BME280;45672;51.612;5.536;2023-04-10T07:50:59;101545.03;;;12.75;58.35
59787;BME280;45672;51.612;5.536;2023-04-10T07:53:24;101531.09;;;13.26;54.87
59787;BME280;45672;51.612;5.536;2023-04-10T07:55:50;101542.31;;;13.74;53.48
59787;BME280;45672;51.612;5.536;2023-04-10T07:58:15;101545.09;;;14.41;52.22
59787;BME280;45672;51.612;5.536;2023-04-10T08:00:41;101542.56;;;15.15;49.00
59787;BME280;45672;51.612;5.536;2023-04-10T08:03:06;101528.50;;;15.86;47.93
59787;BME280;45672;51.612;5.536;2023-04-10T08:05:32;101522.53;;;16.47;45.49
59787;BME280;45672;51.612;5.536;2023-04-10T08:07:58;101529.03;;;17.07;43.65
59787;BME280;45672;51.612;5.536;2023-04-10T08:10:23;101523.03;;;17.35;41.91
59787;BME280;45672;51.612;5.536;2023-04-10T08:12:48;101515.91;;;17.72;41.62
59787;BME280;45672;51.612;5.536;2023-04-10T08:15:14;101522.16;;;17.72;40.39
59787;BME280;45672;51.612;5.536;2023-04-10T08:17:39;101508.94;;;17.48;41.02
59787;BME280;45672;51.612;5.536;2023-04-10T08:20:05;101510.63;;;16.96;41.59
59787;BME280;45672;51.612;5.536;2023-04-10T08:22:31;101506.22;;;16.48;43.06
59787;BME280;45672;51.612;5.536;2023-04-10T08:24:56;101515.03;;;16.02;43.47
59787;BME280;45672;51.612;5.536;2023-04-10T08:27:21;101519.34;;;15.64;44.38
59787;BME280;45672;51.612;5.536;2023-04-10T08:29:47;101508.81;;;15.38;44.82
59787;BME280;45672;51.612;5.536;2023-04-10T08:32:12;101501.47;;;15.23;46.74
59787;BME280;45672;51.612;5.536;2023-04-10T08:34:37;101512.72;;;15.10;45.98
59787;BME280;45672;51.612;5.536;2023-04-10T08:37:06;101511.53;;;15.05;46.46
59787;BME280;45672;51.612;5.536;2023-04-10T08:39:34;101510.38;;;15.15;46.43
59787;BME280;45672;51.612;5.536;2023-04-10T08:42:00;101519.25;;;15.41;47.07
59787;BME280;45672;51.612;5.536;2023-04-10T08:44:26;101504.59;;;15.68;46.08
59787;BME280;45672;51.612;5.536;2023-04-10T08:46:51;101505.59;;;15.67;45.53
59787;BME280;45672;51.612;5.536;2023-04-10T08:49:30;101492.53;;;15.56;46.26
59787;BME280;45672;51.612;5.536;2023-04-10T08:51:57;101484.81;;;15.61;45.50
59787;BME280;45672;51.612;5.536;2023-04-10T08:54:33;101494.69;;;15.60;46.24
59787;BME280;45672;51.612;5.536;2023-04-10T08:57:00;101488.16;;;15.55;46.07
59787;BME280;45672;51.612;5.536;2023-04-10T08:59:29;101488.22;;;15.46;45.68
59787;BME280;45672;51.612;5.536;2023-04-10T09:01:55;101490.91;;;15.38;46.44
59787;BME280;45672;51.612;5.536;2023-04-10T09:04:22;101482.13;;;15.61;46.07
59787;BME280;45672;51.612;5.536;2023-04-10T09:06:48;101484.94;;;15.84;44.92
59787;BME280;45672;51.612;5.536;2023-04-10T09:09:14;101484.94;;;15.84;45.38
59787;BME280;45672;51.612;5.536;2023-04-10T09:14:24;101488.69;;;15.50;45.96
59787;BME280;45672;51.612;5.536;2023-04-10T09:16:51;101476.63;;;15.46;47.02
59787;BME280;45672;51.612;5.536;2023-04-10T09:19:30;101470.56;;;15.52;47.86
59787;BME280;45672;51.612;5.536;2023-04-10T09:21:55;101474.13;;;15.44;47.83
59787;BME280;45672;51.612;5.536;2023-04-10T09:24:24;101462.09;;;15.32;47.79
59787;BME280;45672;51.612;5.536;2023-04-10T09:26:50;101459.44;;;15.24;47.73
59787;BME280;45672;51.612;5.536;2023-04-10T09:29:16;101448.91;;;15.14;48.18
59787;BME280;45672;51.612;5.536;2023-04-10T09:31:41;101461.97;;;15.00;49.07
59787;BME280;45672;51.612;5.536;2023-04-10T09:34:16;101450.25;;;14.93;49.38
59787;BME280;45672;51.612;5.536;2023-04-10T09:36:58;101447.91;;;14.82;49.66
59787;BME280;45672;51.612;5.536;2023-04-10T09:39:38;101440.88;;;14.81;49.82
59787;BME280;45672;51.612;5.536;2023-04-10T09:42:08;101441.38;;;14.93;49.44
59787;BME280;45672;51.612;5.536;2023-04-10T09:44:35;101425.31;;;14.93;50.09
59787;BME280;45672;51.612;5.536;2023-04-10T09:47:21;101411.38;;;15.06;50.88
59787;BME280;45672;51.612;5.536;2023-04-10T09:49:51;101415.41;;;15.02;50.53
59787;BME280;45672;51.612;5.536;2023-04-10T09:52:35;101407.50;;;15.16;50.73
59787;BME280;45672;51.612;5.536;2023-04-10T09:55:04;101403.94;;;15.32;50.18
59787;BME280;45672;51.612;5.536;2023-04-10T09:57:32;101396.22;;;15.38;49.12
59787;BME280;45672;51.612;5.536;2023-04-10T10:00:03;101388.84;;;15.40;50.22
59787;BME280;45672;51.612;5.536;2023-04-10T10:02:30;101394.56;;;15.37;49.62
59787;BME280;45672;51.612;5.536;2023-04-10T10:04:57;101391.19;;;15.34;49.91
59787;BME280;45672;51.612;5.536;2023-04-10T10:07:26;101387.53;;;15.27;50.19
59787;BME280;45672;51.612;5.536;2023-04-10T10:09:52;101392.28;;;15.17;50.11
59787;BME280;45672;51.612;5.536;2023-04-10T10:12:46;101395.41;;;15.29;51.48
59787;BME280;45672;51.612;5.536;2023-04-10T10:20:37;101383.34;;;15.64;49.32
59787;BME280;45672;51.612;5.536;2023-04-10T10:23:05;101374.94;;;15.67;49.31
59787;BME280;45672;51.612;5.536;2023-04-10T10:25:34;101364.41;;;15.66;47.81
59787;BME280;45672;51.612;5.536;2023-04-10T10:28:02;101352.53;;;15.60;48.03
59787;BME280;45672;51.612;5.536;2023-04-10T10:30:31;101349.22;;;15.50;50.00
59787;BME280;45672;51.612;5.536;2023-04-10T10:32:57;101349.66;;;15.62;48.42
59787;BME280;45672;51.612;5.536;2023-04-10T10:35:25;101335.06;;;15.64;48.74
59787;BME280;45672;51.612;5.536;2023-04-10T10:37:51;101337.66;;;15.89;48.54
59787;BME280;45672;51.612;5.536;2023-04-10T10:40:21;101341.34;;;16.11;47.84
59787;BME280;45672;51.612;5.536;2023-04-10T10:42:59;101344.31;;;16.40;47.21
59787;BME280;45672;51.612;5.536;2023-04-10T10:45:33;101330.69;;;16.41;47.11
59787;BME280;45672;51.612;5.536;2023-04-10T10:48:01;101326.69;;;16.37;47.95
59787;BME280;45672;51.612;5.536;2023-04-10T10:50:55;101331.72;;;16.17;47.51
59787;BME280;45672;51.612;5.536;2023-04-10T10:53:39;101318.47;;;16.00;47.34
59787;BME280;45672;51.612;5.536;2023-04-10T10:58:46;101301.63;;;16.07;47.35
59787;BME280;45672;51.612;5.536;2023-04-10T11:01:12;101304.16;;;16.23;46.42
59787;BME280;45672;51.612;5.536;2023-04-10T11:03:38;101299.66;;;16.38;45.87
59787;BME280;45672;51.612;5.536;2023-04-10T11:06:06;101289.84;;;16.46;46.18
59787;BME280;45672;51.612;5.536;2023-04-10T11:11:02;101286.91;;;16.55;45.67
59787;BME280;45672;51.612;5.536;2023-04-10T11:13:29;101279.94;;;16.61;45.49
59787;BME280;45672;51.612;5.536;2023-04-10T11:15:56;101287.03;;;16.77;45.11
59787;BME280;45672;51.612;5.536;2023-04-10T11:19:06;101283.97;;;16.80;45.63
59787;BME280;45672;51.612;5.536;2023-04-10T11:21:32;101279.97;;;16.76;45.58
59787;BME280;45672;51.612;5.536;2023-04-10T11:31:46;101256.56;;;17.36;43.79
59787;BME280;45672;51.612;5.536;2023-04-10T11:34:18;101246.94;;;17.27;43.20
59787;BME280;45672;51.612;5.536;2023-04-10T11:36:43;101248.16;;;17.10;43.81
59787;BME280;45672;51.612;5.536;2023-04-10T11:39:13;101241.69;;;17.04;44.43
59787;BME280;45672;51.612;5.536;2023-04-10T11:41:46;101267.75;;;17.03;44.50
59787;BME280;45672;51.612;5.536;2023-04-10T11:44:13;101243.41;;;16.90;43.76
59787;BME280;45672;51.612;5.536;2023-04-10T11:46:44;101242.06;;;16.86;44.10
59787;BME280;45672;51.612;5.536;2023-04-10T11:49:17;101245.97;;;16.83;44.73
59787;BME280;45672;51.612;5.536;2023-04-10T11:51:45;101232.16;;;16.71;44.07
59787;BME280;45672;51.612;5.536;2023-04-10T11:54:15;101227.53;;;16.65;44.40
59787;BME280;45672;51.612;5.536;2023-04-10T11:56:45;101216.78;;;16.65;44.86
59787;BME280;45672;51.612;5.536;2023-04-10T11:59:18;101222.22;;;16.57;45.42
59787;BME280;45672;51.612;5.536;2023-04-10T12:01:44;101214.47;;;16.62;45.60
59787;BME280;45672;51.612;5.536;2023-04-10T12:04:14;101221.13;;;16.66;45.20
59787;BME280;45672;51.612;5.536;2023-04-10T12:06:48;101207.88;;;16.50;45.34
59787;BME280;45672;51.612;5.536;2023-04-10T12:09:15;101213.53;;;16.55;45.31
59787;BME280;45672;51.612;5.536;2023-04-10T12:11:52;101206.88;;;16.66;45.20
59787;BME280;45672;51.612;5.536;2023-04-10T12:14:19;101212.59;;;16.78;45.05
59787;BME280;45672;51.612;5.536;2023-04-10T12:16:45;101207.13;;;16.86;44.67
59787;BME280;45672;51.612;5.536;2023-04-10T12:19:11;101196.03;;;16.89;44.64
59787;BME280;45672;51.612;5.536;2023-04-10T12:21:38;101189.44;;;16.77;45.62
59787;BME280;45672;51.612;5.536;2023-04-10T12:24:05;101194.44;;;16.80;44.96
59787;BME280;45672;51.612;5.536;2023-04-10T12:26:30;101181.47;;;16.83;45.33
59787;BME280;45672;51.612;5.536;2023-04-10T12:28:56;101181.91;;;16.87;45.34
59787;BME280;45672;51.612;5.536;2023-04-10T12:31:30;101175.44;;;16.96;45.70
59787;BME280;45672;51.612;5.536;2023-04-10T12:33:57;101164.50;;;16.98;44.92
59787;BME280;45672;51.612;5.536;2023-04-10T12:36:26;101175.34;;;17.04;45.28
59787;BME280;45672;51.612;5.536;2023-04-10T12:38:57;101160.84;;;17.05;44.42
59787;BME280;45672;51.612;5.536;2023-04-10T12:41:25;101169.66;;;17.14;44.64
59787;BME280;45672;51.612;5.536;2023-04-10T12:43:52;101164.19;;;17.08;44.60
59787;BME280;45672;51.612;5.536;2023-04-10T12:46:28;101145.50;;;16.99;45.28
59787;BME280;45672;51.612;5.536;2023-04-10T12:48:54;101152.72;;;16.84;46.12
59787;BME280;45672;51.612;5.536;2023-04-10T12:54:25;101147.19;;;16.70;46.47
59787;BME280;45672;51.612;5.536;2023-04-10T12:56:51;101133.41;;;16.59;46.55
59787;BME280;45672;51.612;5.536;2023-04-10T12:59:17;101133.25;;;16.45;45.99
59787;BME280;45672;51.612;5.536;2023-04-10T13:01:43;101131.38;;;16.46;45.77
59787;BME280;45672;51.612;5.536;2023-04-10T13:04:08;101143.44;;;16.35;45.80
59787;BME280;45672;51.612;5.536;2023-04-10T13:06:41;101114.47;;;16.30;46.12
59787;BME280;45672;51.612;5.536;2023-04-10T13:09:07;101115.66;;;16.28;46.99
59787;BME280;45672;51.612;5.536;2023-04-10T13:11:32;101101.31;;;16.20;47.16
59787;BME280;45672;51.612;5.536;2023-04-10T13:13:57;101112.16;;;16.12;46.93
59787;BME280;45672;51.612;5.536;2023-04-10T13:16:22;101097.50;;;16.00;47.70
59787;BME280;45672;51.612;5.536;2023-04-10T13:18:48;101094.72;;;15.93;47.32
59787;BME280;45672;51.612;5.536;2023-04-10T13:21:13;101095.41;;;15.95;47.41
59787;BME280;45672;51.612;5.536;2023-04-10T13:23:42;101087.78;;;15.99;47.57
59787;BME280;45672;51.612;5.536;2023-04-10T13:26:08;101082.63;;;15.97;47.79
59787;BME280;45672;51.612;5.536;2023-04-10T13:28:33;101079.94;;;15.97;47.80
59787;BME280;45672;51.612;5.536;2023-04-10T13:30:58;101069.56;;;15.94;47.83
59787;BME280;45672;51.612;5.536;2023-04-10T13:33:24;101063.19;;;15.95;47.61
59787;BME280;45672;51.612;5.536;2023-04-10T13:35:49;101045.91;;;15.98;47.15